createdAt,value
2023-03-06T00:00:58.041Z,98464.73
2023-03-06T00:03:28.245Z,98464.23
2023-03-06T00:05:59.135Z,98461.20
2023-03-06T00:08:28.273Z,98456.85
2023-03-06T00:11:00.908Z,98460.26
2023-03-06T00:13:35.240Z,98456.77
2023-03-06T00:16:03.741Z,98458.70
2023-03-06T00:18:31.926Z,98458.02
2023-03-06T00:21:02.375Z,98460.33
2023-03-06T00:23:33.251Z,98467.41
2023-03-06T00:26:02.070Z,98471.75
2023-03-06T00:28:31.663Z,98472.98
2023-03-06T00:31:02.756Z,98479.02
2023-03-06T00:33:35.288Z,98479.08
2023-03-06T00:36:06.940Z,98481.98
2023-03-06T00:38:37.254Z,98483.73
2023-03-06T00:41:11.911Z,98490.22
2023-03-06T00:43:40.708Z,98489.21
2023-03-06T00:46:09.394Z,98494.58
2023-03-06T00:48:38.305Z,98504.41
2023-03-06T00:51:11.430Z,98504.85
2023-03-06T00:53:41.812Z,98497.85
2023-03-06T00:56:10.523Z,98502.50
2023-03-06T00:58:38.885Z,98503.83
2023-03-06T01:01:07.107Z,98506.67
2023-03-06T01:03:36.066Z,98506.94
2023-03-06T01:06:06.431Z,98500.82
2023-03-06T01:08:37.107Z,98495.34
2023-03-06T01:11:06.028Z,98498.53
2023-03-06T01:13:34.291Z,98501.27
2023-03-06T01:16:15.077Z,98495.39
2023-03-06T01:18:43.758Z,98495.66
2023-03-06T01:21:12.092Z,98494.11
2023-03-06T01:23:40.980Z,98491.10
2023-03-06T01:26:09.486Z,98492.30
2023-03-06T01:28:40.878Z,98493.38
2023-03-06T01:31:09.221Z,98488.98
2023-03-06T01:33:38.409Z,98486.96
2023-03-06T01:36:08.287Z,98485.95
2023-03-06T01:38:36.429Z,98482.92
2023-03-06T01:41:04.959Z,98481.02
2023-03-06T01:43:35.436Z,98476.70
2023-03-06T01:46:18.800Z,98472.31
2023-03-06T01:48:46.960Z,98472.92
2023-03-06T01:51:15.370Z,98474.96
2023-03-06T01:53:43.770Z,98476.73
2023-03-06T01:56:12.040Z,98477.41
2023-03-06T01:58:40.760Z,98475.59
2023-03-06T02:01:13.530Z,98474.77
2023-03-06T02:03:41.806Z,98475.02
2023-03-06T02:06:09.896Z,98474.20
2023-03-06T02:08:49.950Z,98469.74
2023-03-06T02:11:22.595Z,98473.82
2023-03-06T02:13:51.787Z,98471.42
2023-03-06T02:16:21.894Z,98471.95
2023-03-06T02:18:52.190Z,98467.05
2023-03-06T02:21:29.416Z,98466.98
2023-03-06T02:24:23.437Z,98463.55
2023-03-06T02:26:51.697Z,98463.48
2023-03-06T02:29:22.642Z,98461.97
2023-03-06T02:31:51.035Z,98459.29
2023-03-06T02:34:19.046Z,98455.98
2023-03-06T02:36:49.925Z,98457.75
2023-03-06T02:39:44.278Z,98452.73
2023-03-06T02:42:18.718Z,98457.59
2023-03-06T02:44:46.919Z,98454.83
2023-03-06T02:47:15.016Z,98456.61
2023-03-06T02:49:43.078Z,98457.80
2023-03-06T02:52:11.730Z,98455.96
2023-03-06T02:54:41.010Z,98457.02
2023-03-06T02:57:09.897Z,98453.66
2023-03-06T02:59:38.249Z,98457.09
2023-03-06T03:02:06.469Z,98455.43
2023-03-06T03:04:35.853Z,98456.00
2023-03-06T03:07:04.082Z,98459.02
2023-03-06T03:09:36.984Z,98455.64
2023-03-06T03:12:10.366Z,98453.30
2023-03-06T03:14:39.956Z,98453.98
2023-03-06T03:17:08.334Z,98450.41
2023-03-06T03:19:37.814Z,98454.73
2023-03-06T03:22:07.262Z,98451.60
2023-03-06T03:24:39.100Z,98452.73
2023-03-06T03:27:08.784Z,98454.48
2023-03-06T03:29:37.174Z,98455.52
2023-03-06T03:32:05.613Z,98452.66
2023-03-06T03:34:33.838Z,98453.39
2023-03-06T03:37:05.226Z,98454.22
2023-03-06T03:39:33.675Z,98451.27
2023-03-06T03:42:04.556Z,98454.95
2023-03-06T03:44:34.289Z,98454.95
2023-03-06T03:47:02.709Z,98454.76
2023-03-06T03:49:31.797Z,98456.77
2023-03-06T03:52:00.244Z,98459.74
2023-03-06T03:54:30.540Z,98458.11
2023-03-06T03:56:59.255Z,98462.25
2023-03-06T03:59:31.995Z,98466.13
2023-03-06T04:02:11.634Z,98466.80
2023-03-06T04:04:47.287Z,98469.87
2023-03-06T04:07:15.451Z,98468.81
2023-03-06T04:09:44.656Z,98470.90
2023-03-06T04:12:17.018Z,98470.01
2023-03-06T04:14:47.414Z,98473.45
2023-03-06T04:17:15.700Z,98472.20
2023-03-06T04:19:44.181Z,98472.08
2023-03-06T04:22:12.727Z,98469.18
2023-03-06T04:24:41.153Z,98472.74
2023-03-06T04:27:16.726Z,98471.52
2023-03-06T04:29:45.077Z,98471.98
2023-03-06T04:32:13.183Z,98473.11
2023-03-06T04:34:42.183Z,98471.58
2023-03-06T04:37:22.059Z,98473.13
2023-03-06T04:39:51.227Z,98479.58
2023-03-06T04:42:19.243Z,98474.39
2023-03-06T04:44:47.785Z,98482.64
2023-03-06T04:47:19.036Z,98482.17
2023-03-06T04:49:47.599Z,98485.00
2023-03-06T04:52:15.712Z,98487.02
2023-03-06T04:54:44.258Z,98484.73
2023-03-06T04:57:14.250Z,98481.51
2023-03-06T04:59:42.676Z,98490.13
2023-03-06T05:02:11.166Z,98493.24
2023-03-06T05:04:39.769Z,98493.34
2023-03-06T05:07:08.501Z,98496.91
2023-03-06T05:09:39.332Z,98498.20
2023-03-06T05:12:07.804Z,98498.65
2023-03-06T05:14:36.252Z,98503.45
2023-03-06T05:17:07.693Z,98499.92
2023-03-06T05:19:36.393Z,98503.52
2023-03-06T05:22:04.996Z,98509.30
2023-03-06T05:24:33.116Z,98508.89
2023-03-06T05:27:01.175Z,98513.77
2023-03-06T05:29:29.504Z,98517.06
2023-03-06T05:32:00.499Z,98521.08
2023-03-06T05:34:29.484Z,98521.75
2023-03-06T05:36:57.826Z,98521.36
2023-03-06T05:39:25.838Z,98523.52
2023-03-06T05:41:53.977Z,98528.48
2023-03-06T05:44:24.076Z,98533.44
2023-03-06T05:46:52.199Z,98533.56
2023-03-06T05:49:20.351Z,98533.94
2023-03-06T05:51:48.600Z,98530.34
2023-03-06T05:54:17.559Z,98527.50
2023-03-06T05:56:46.297Z,98527.02
2023-03-06T05:59:14.369Z,98529.02
2023-03-06T06:01:44.338Z,98530.73
2023-03-06T06:04:12.754Z,98528.99
2023-03-06T06:06:41.035Z,98535.27
2023-03-06T06:09:12.275Z,98533.30
2023-03-06T06:11:41.718Z,98536.41
2023-03-06T06:14:09.789Z,98540.74
2023-03-06T06:16:39.223Z,98550.23
2023-03-06T06:19:07.402Z,98557.83
2023-03-06T06:21:35.580Z,98564.30
2023-03-06T06:24:04.201Z,98570.11
2023-03-06T06:26:36.538Z,98572.45
2023-03-06T06:29:05.523Z,98582.66
2023-03-06T06:31:33.630Z,98582.98
2023-03-06T06:34:03.113Z,98579.02
2023-03-06T06:36:31.276Z,98575.52
2023-03-06T06:39:00.573Z,98579.92
2023-03-06T06:44:20.897Z,98586.83
2023-03-06T06:47:21.210Z,98581.84
2023-03-06T06:49:42.991Z,98584.29
2023-03-06T06:52:11.081Z,98585.52
2023-03-06T06:54:39.102Z,98585.22
2023-03-06T06:57:07.188Z,98586.52
2023-03-06T06:59:35.299Z,98588.13
2023-03-06T07:02:03.718Z,98586.08
2023-03-06T07:04:32.017Z,98584.68
2023-03-06T07:07:01.701Z,98586.17
2023-03-06T07:09:31.424Z,98583.62
2023-03-06T07:11:59.858Z,98589.04
2023-03-06T07:14:27.890Z,98590.95
2023-03-06T07:16:56.479Z,98593.09
2023-03-06T07:19:28.080Z,98594.02
2023-03-06T07:21:56.156Z,98593.98
2023-03-06T07:24:24.823Z,98596.52
2023-03-06T07:26:54.839Z,98599.45
2023-03-06T07:29:22.884Z,98599.00
2023-03-06T07:31:50.883Z,98602.27
2023-03-06T07:34:18.923Z,98610.89
2023-03-06T07:36:47.139Z,98610.39
2023-03-06T07:39:15.190Z,98612.48
2023-03-06T07:41:43.236Z,98618.81
2023-03-06T07:44:14.577Z,98620.25
2023-03-06T07:46:42.906Z,98621.17
2023-03-06T07:49:11.004Z,98617.60
2023-03-06T07:51:39.553Z,98616.30
2023-03-06T07:54:07.848Z,98622.76
2023-03-06T07:56:37.404Z,98622.94
2023-03-06T07:59:05.814Z,98632.91
2023-03-06T08:01:40.544Z,98634.26
2023-03-06T08:04:09.352Z,98629.64
2023-03-06T08:06:37.704Z,98630.29
2023-03-06T08:09:07.112Z,98635.98
2023-03-06T08:11:35.252Z,98634.91
2023-03-06T08:14:05.041Z,98642.30
2023-03-06T08:16:40.446Z,98640.30
2023-03-06T08:19:11.460Z,98638.34
2023-03-06T08:21:40.155Z,98643.70
2023-03-06T08:24:16.707Z,98648.64
2023-03-06T08:26:45.153Z,98651.45
2023-03-06T08:29:18.752Z,98649.36
2023-03-06T08:31:50.436Z,98653.98
2023-03-06T08:34:20.766Z,98655.54
2023-03-06T08:36:50.441Z,98654.61
2023-03-06T08:39:19.296Z,98658.57
2023-03-06T08:41:47.378Z,98660.72
2023-03-06T08:44:16.147Z,98664.54
2023-03-06T08:46:44.454Z,98666.39
2023-03-06T08:49:12.625Z,98666.83
2023-03-06T08:51:40.725Z,98665.35
2023-03-06T08:54:11.262Z,98668.14
2023-03-06T08:56:39.784Z,98670.02
2023-03-06T08:59:09.529Z,98672.20
2023-03-06T09:01:38.000Z,98670.36
2023-03-06T09:04:26.125Z,98671.58
2023-03-06T09:06:55.608Z,98677.14
2023-03-06T09:09:23.841Z,98683.38
2023-03-06T09:11:53.739Z,98686.67
2023-03-06T09:14:22.136Z,98689.20
2023-03-06T09:16:50.794Z,98689.81
2023-03-06T09:19:19.039Z,98697.05
2023-03-06T09:21:48.554Z,98696.59
2023-03-06T09:24:17.956Z,98693.04
2023-03-06T09:26:47.954Z,98695.98
2023-03-06T09:29:17.652Z,98697.89
2023-03-06T09:31:48.531Z,98703.49
2023-03-06T09:34:17.088Z,98703.73
2023-03-06T09:36:56.771Z,98706.56
2023-03-06T09:39:26.186Z,98712.74
2023-03-06T09:41:54.577Z,98716.27
2023-03-06T09:44:33.268Z,98712.57
2023-03-06T09:47:13.741Z,98705.02
2023-03-06T09:50:17.189Z,98711.20
2023-03-06T09:52:57.399Z,98708.64
2023-03-06T09:55:27.204Z,98712.00
2023-03-06T09:58:11.317Z,98711.83
2023-03-06T10:01:01.059Z,98709.84
2023-03-06T10:03:55.018Z,98710.13
2023-03-06T10:06:42.071Z,98711.63
2023-03-06T10:09:26.445Z,98711.75
2023-03-06T10:12:06.772Z,98705.27
2023-03-06T10:14:37.992Z,98707.08
2023-03-06T10:17:06.591Z,98705.40
2023-03-06T10:19:37.979Z,98707.52
2023-03-06T10:22:33.151Z,98706.84
2023-03-06T10:25:20.317Z,98711.49
2023-03-06T10:27:50.418Z,98710.75
2023-03-06T10:30:34.394Z,98708.45
2023-03-06T10:33:07.581Z,98706.15
2023-03-06T10:35:50.007Z,98707.77
2023-03-06T10:38:38.347Z,98704.54
2023-03-06T10:41:12.540Z,98702.06
2023-03-06T10:43:43.996Z,98700.99
2023-03-06T10:46:14.929Z,98696.20
2023-03-06T10:48:44.285Z,98701.30
2023-03-06T10:51:20.570Z,98701.89
2023-03-06T10:53:55.995Z,98697.21
2023-03-06T10:56:28.740Z,98697.05
2023-03-06T10:59:09.193Z,98701.23
2023-03-06T11:01:41.561Z,98698.28
2023-03-06T11:04:28.925Z,98698.23
2023-03-06T11:07:12.290Z,98694.67
2023-03-06T11:09:41.097Z,98694.21
2023-03-06T11:12:32.506Z,98692.41
2023-03-06T11:15:07.564Z,98697.92
2023-03-06T11:17:55.305Z,98694.20
2023-03-06T11:20:26.927Z,98697.85
2023-03-06T11:22:59.969Z,98687.52
2023-03-06T11:25:32.946Z,98688.05
2023-03-06T11:28:19.156Z,98690.52
2023-03-06T11:30:53.788Z,98688.41
2023-03-06T11:33:38.936Z,98685.97
2023-03-06T11:36:16.339Z,98695.35
2023-03-06T11:38:49.309Z,98694.00
2023-03-06T11:41:44.945Z,98698.29
2023-03-06T11:44:24.718Z,98698.89
2023-03-06T11:47:16.297Z,98693.77
2023-03-06T11:49:46.894Z,98690.15
2023-03-06T11:52:23.214Z,98696.83
2023-03-06T11:54:54.544Z,98696.23
2023-03-06T11:57:30.896Z,98702.50
2023-03-06T12:00:15.911Z,98696.16
2023-03-06T12:03:12.760Z,98694.08
2023-03-06T12:05:47.480Z,98695.13
2023-03-06T12:08:55.418Z,98699.66
2023-03-06T12:11:29.690Z,98689.66
2023-03-06T12:14:18.049Z,98696.73
2023-03-06T12:16:50.139Z,98700.08
2023-03-06T12:19:55.652Z,98700.28
2023-03-06T12:22:31.171Z,98696.55
2023-03-06T12:25:18.193Z,98699.98
2023-03-06T12:28:04.774Z,98699.84
2023-03-06T12:30:54.792Z,98700.61
2023-03-06T12:33:41.967Z,98705.14
2023-03-06T12:36:35.188Z,98704.32
2023-03-06T12:39:18.105Z,98702.85
2023-03-06T12:42:22.617Z,98696.89
2023-03-06T12:44:58.145Z,98701.83
2023-03-06T12:47:28.172Z,98701.48
2023-03-06T12:49:59.447Z,98699.92
2023-03-06T12:52:32.143Z,98699.56
2023-03-06T12:55:01.642Z,98695.38
2023-03-06T12:57:29.865Z,98702.48
2023-03-06T12:59:57.919Z,98693.14
2023-03-06T13:02:59.983Z,98694.06
2023-03-06T13:06:06.383Z,98688.11
2023-03-06T13:08:59.534Z,98689.91
2023-03-06T13:11:39.459Z,98699.36
2023-03-06T13:14:37.554Z,98699.80
2023-03-06T13:17:22.974Z,98695.21
2023-03-06T13:20:30.257Z,98703.56
2023-03-06T13:22:58.790Z,98701.90
2023-03-06T13:25:27.109Z,98694.11
2023-03-06T13:27:55.567Z,98698.86
2023-03-06T13:30:43.788Z,98702.45
2023-03-06T13:33:24.804Z,98699.37
2023-03-06T13:35:54.950Z,98700.25
2023-03-06T13:38:58.376Z,98700.58
2023-03-06T13:41:33.936Z,98696.27
2023-03-06T13:44:20.591Z,98697.33
2023-03-06T13:47:05.725Z,98697.85
2023-03-06T13:49:34.244Z,98699.16
2023-03-06T13:52:34.656Z,98705.20
2023-03-06T13:55:12.482Z,98697.77
2023-03-06T13:57:46.612Z,98704.08
2023-03-06T14:00:45.896Z,98703.53
2023-03-06T14:03:19.431Z,98701.71
2023-03-06T14:05:49.592Z,98697.90
2023-03-06T14:08:22.830Z,98697.38
2023-03-06T14:11:21.209Z,98707.65
2023-03-06T14:13:52.403Z,98701.54
2023-03-06T14:16:21.821Z,98701.04
2023-03-06T14:18:52.759Z,98699.48
2023-03-06T14:21:47.057Z,98700.26
2023-03-06T14:24:37.304Z,98703.79
2023-03-06T14:27:05.795Z,98707.80
2023-03-06T14:29:34.577Z,98716.15
2023-03-06T14:32:06.019Z,98712.67
2023-03-06T14:34:40.198Z,98718.67
2023-03-06T14:37:25.322Z,98716.95
2023-03-06T14:39:55.418Z,98717.41
2023-03-06T14:42:28.006Z,98718.32
2023-03-06T14:45:05.559Z,98725.79
2023-03-06T14:47:36.573Z,98724.31
2023-03-06T14:50:23.391Z,98723.00
2023-03-06T14:52:58.357Z,98722.28
2023-03-06T14:55:28.338Z,98729.12
2023-03-06T14:58:01.529Z,98727.06
2023-03-06T15:00:35.893Z,98730.73
2023-03-06T15:03:06.017Z,98729.72
2023-03-06T15:05:34.692Z,98728.77
2023-03-06T15:08:04.031Z,98727.78
2023-03-06T15:10:35.517Z,98732.48
2023-03-06T15:13:11.498Z,98735.55
2023-03-06T15:15:39.668Z,98733.58
2023-03-06T15:18:38.971Z,98740.00
2023-03-06T15:21:17.606Z,98740.73
2023-03-06T15:23:47.361Z,98737.14
2023-03-06T15:26:23.041Z,98735.11
2023-03-06T15:29:16.837Z,98736.07
2023-03-06T15:31:45.571Z,98737.61
2023-03-06T15:34:17.452Z,98738.86
2023-03-06T15:36:47.509Z,98739.64
2023-03-06T15:39:35.471Z,98740.84
2023-03-06T15:42:20.386Z,98748.59
2023-03-06T15:44:56.660Z,98751.58
2023-03-06T15:47:24.687Z,98753.35
2023-03-06T15:49:53.385Z,98753.56
2023-03-06T15:52:24.501Z,98753.17
2023-03-06T15:54:52.803Z,98753.38
2023-03-06T15:57:25.327Z,98758.36
2023-03-06T15:59:53.723Z,98760.30
2023-03-06T16:02:22.838Z,98763.52
2023-03-06T16:04:51.463Z,98765.09
2023-03-06T16:07:20.799Z,98768.88
2023-03-06T16:09:57.015Z,98767.58
2023-03-06T16:12:30.920Z,98768.48
2023-03-06T16:14:59.354Z,98771.70
2023-03-06T16:17:32.876Z,98774.65
2023-03-06T16:20:01.230Z,98772.00
2023-03-06T16:22:31.829Z,98772.36
2023-03-06T16:24:59.950Z,98775.02
2023-03-06T16:27:28.279Z,98777.45
2023-03-06T16:29:57.635Z,98774.24
2023-03-06T16:32:28.700Z,98774.94
2023-03-06T16:34:57.016Z,98776.78
2023-03-06T16:37:25.337Z,98779.02
2023-03-06T16:39:53.815Z,98781.42
2023-03-06T16:42:24.471Z,98778.65
2023-03-06T16:44:52.737Z,98781.08
2023-03-06T16:47:21.917Z,98778.20
2023-03-06T16:49:52.193Z,98776.84
2023-03-06T16:52:20.178Z,98776.89
2023-03-06T16:54:48.304Z,98776.61
2023-03-06T16:57:17.986Z,98777.55
2023-03-06T16:59:46.070Z,98778.48
2023-03-06T17:02:14.295Z,98776.60
2023-03-06T17:04:42.458Z,98772.90
2023-03-06T17:07:10.740Z,98776.80
2023-03-06T17:09:39.960Z,98775.52
2023-03-06T17:12:08.508Z,98773.27
2023-03-06T17:14:38.511Z,98772.98
2023-03-06T17:17:07.170Z,98780.11
2023-03-06T17:19:36.301Z,98781.55
2023-03-06T17:22:05.320Z,98779.78
2023-03-06T17:24:33.448Z,98778.02
2023-03-06T17:27:06.954Z,98779.02
2023-03-06T17:29:35.447Z,98784.54
2023-03-06T17:32:03.843Z,98783.94
2023-03-06T17:34:33.004Z,98780.70
2023-03-06T17:37:01.686Z,98777.80
2023-03-06T17:39:33.989Z,98782.23
2023-03-06T17:42:03.454Z,98778.62
2023-03-06T17:44:34.576Z,98778.77
2023-03-06T17:47:05.086Z,98780.60
2023-03-06T17:49:33.207Z,98782.66
2023-03-06T17:52:03.018Z,98780.58
2023-03-06T17:54:33.285Z,98779.58
2023-03-06T17:57:03.642Z,98776.26
2023-03-06T17:59:34.298Z,98781.95
2023-03-06T18:02:06.479Z,98782.47
2023-03-06T18:04:35.616Z,98783.56
2023-03-06T18:07:04.010Z,98787.56
2023-03-06T18:09:35.031Z,98790.39
2023-03-06T18:12:03.876Z,98788.59
2023-03-06T18:14:32.215Z,98790.33
2023-03-06T18:17:00.755Z,98791.81
2023-03-06T18:19:29.602Z,98787.37
2023-03-06T18:21:57.680Z,98789.94
2023-03-06T18:24:29.329Z,98789.11
2023-03-06T18:26:57.672Z,98790.45
2023-03-06T18:29:27.017Z,98794.71
2023-03-06T18:31:56.943Z,98794.05
2023-03-06T18:34:25.339Z,98796.63
2023-03-06T18:36:58.877Z,98797.13
2023-03-06T18:39:26.968Z,98795.28
2023-03-06T18:41:58.657Z,98796.77
2023-03-06T18:44:27.531Z,98795.59
2023-03-06T18:46:55.726Z,98796.45
2023-03-06T18:49:24.160Z,98800.98
2023-03-06T18:51:54.795Z,98801.38
2023-03-06T18:54:25.458Z,98800.52
2023-03-06T18:56:53.668Z,98802.69
2023-03-06T18:59:41.567Z,98798.73
2023-03-06T19:02:10.965Z,98799.69
2023-03-06T19:04:39.123Z,98807.83
2023-03-06T19:07:07.587Z,98806.63
2023-03-06T19:09:35.747Z,98807.21
2023-03-06T19:12:04.381Z,98810.66
2023-03-06T19:14:33.914Z,98807.98
2023-03-06T19:17:04.771Z,98812.34
2023-03-06T19:19:35.353Z,98814.61
2023-03-06T19:22:03.363Z,98823.35
2023-03-06T19:24:35.297Z,98818.89
2023-03-06T19:27:04.857Z,98815.97
2023-03-06T19:29:33.610Z,98806.82
2023-03-06T19:32:03.585Z,98806.70
2023-03-06T19:34:35.619Z,98810.70
2023-03-06T19:37:03.759Z,98809.67
2023-03-06T19:39:33.476Z,98805.86
2023-03-06T19:42:04.743Z,98797.52
2023-03-06T19:44:34.926Z,98800.46
2023-03-06T19:47:05.575Z,98801.54
2023-03-06T19:49:35.600Z,98805.23
2023-03-06T19:52:04.737Z,98799.95
2023-03-06T19:54:33.902Z,98798.77
2023-03-06T19:57:02.243Z,98798.02
2023-03-06T19:59:34.857Z,98798.90
2023-03-06T20:02:07.016Z,98797.16
2023-03-06T20:04:35.168Z,98794.88
2023-03-06T20:07:05.067Z,98793.55
2023-03-06T20:09:35.304Z,98785.30
2023-03-06T20:12:05.553Z,98785.70
2023-03-06T20:14:35.944Z,98785.94
2023-03-06T20:17:04.363Z,98785.80
2023-03-06T20:19:35.716Z,98790.52
2023-03-06T20:22:08.549Z,98788.39
2023-03-06T20:24:42.037Z,98790.62
2023-03-06T20:27:17.282Z,98791.39
2023-03-06T20:29:59.010Z,98791.25
2023-03-06T20:32:27.322Z,98786.63
2023-03-06T20:34:55.541Z,98785.20
2023-03-06T20:37:25.999Z,98777.52
2023-03-06T20:42:51.773Z,98770.81
2023-03-06T20:45:20.049Z,98768.19
2023-03-06T20:47:50.974Z,98767.59
2023-03-06T20:50:19.147Z,98765.88
2023-03-06T20:52:47.963Z,98768.92
2023-03-06T20:55:16.727Z,98775.19
2023-03-06T20:57:45.096Z,98780.80
2023-03-06T21:00:14.134Z,98770.28
2023-03-06T21:03:02.259Z,98770.02
2023-03-06T21:05:32.848Z,98767.52
2023-03-06T21:08:01.992Z,98765.69
2023-03-06T21:10:31.200Z,98763.30
2023-03-06T21:13:00.603Z,98757.72
2023-03-06T21:15:30.151Z,98750.72
2023-03-06T21:17:58.466Z,98749.13
2023-03-06T21:20:26.561Z,98748.42
2023-03-06T21:22:56.268Z,98743.46
2023-03-06T21:25:24.578Z,98742.91
2023-03-06T21:27:52.898Z,98742.87
2023-03-06T21:30:21.486Z,98740.29
2023-03-06T21:32:51.081Z,98736.10
2023-03-06T21:35:19.751Z,98734.41
2023-03-06T21:37:50.193Z,98735.35
2023-03-06T21:40:18.759Z,98735.18
2023-03-06T21:42:46.825Z,98728.61
2023-03-06T21:45:14.974Z,98732.39
2023-03-06T21:47:48.375Z,98732.72
2023-03-06T21:50:18.276Z,98728.39
2023-03-06T21:52:49.969Z,98733.04
2023-03-06T21:55:18.546Z,98726.27
2023-03-06T21:57:51.177Z,98728.05
2023-03-06T22:00:20.189Z,98727.08
2023-03-06T22:02:50.155Z,98734.00
2023-03-06T22:05:18.734Z,98732.21
2023-03-06T22:07:48.111Z,98732.45
2023-03-06T22:10:16.586Z,98733.85
2023-03-06T22:12:48.002Z,98723.84
2023-03-06T22:15:16.688Z,98727.80
2023-03-06T22:17:47.834Z,98726.23
2023-03-06T22:20:19.211Z,98726.23
2023-03-06T22:22:50.530Z,98730.31
2023-03-06T22:25:18.898Z,98730.06
2023-03-06T22:27:46.876Z,98729.70
2023-03-06T22:30:15.545Z,98731.70
2023-03-06T22:32:43.900Z,98735.63
2023-03-06T22:35:14.950Z,98731.91
2023-03-06T22:37:44.251Z,98727.73
2023-03-06T22:40:13.833Z,98725.42
2023-03-06T22:42:42.580Z,98726.44
2023-03-06T22:45:12.554Z,98723.21
2023-03-06T22:47:43.484Z,98719.27
2023-03-06T22:50:12.016Z,98716.68
2023-03-06T22:52:40.178Z,98713.43
2023-03-06T22:55:10.265Z,98709.59
2023-03-06T22:57:38.719Z,98707.95
2023-03-06T23:00:08.192Z,98710.30
2023-03-06T23:02:38.699Z,98704.02
2023-03-06T23:05:07.482Z,98702.23
2023-03-06T23:07:37.492Z,98705.25
2023-03-06T23:10:07.030Z,98703.04
2023-03-06T23:12:54.099Z,98698.36
2023-03-06T23:15:40.832Z,98702.45
2023-03-06T23:18:30.832Z,98695.75
2023-03-06T23:21:18.226Z,98691.83
2023-03-06T23:24:06.627Z,98689.91
2023-03-06T23:26:35.796Z,98693.52
2023-03-06T23:29:04.496Z,98688.16
2023-03-06T23:31:33.535Z,98686.88
2023-03-06T23:34:02.360Z,98686.98
2023-03-06T23:36:30.952Z,98687.63
2023-03-06T23:38:59.414Z,98680.10
2023-03-06T23:41:29.778Z,98673.94
2023-03-06T23:43:58.476Z,98673.83
2023-03-06T23:46:26.560Z,98667.48
2023-03-06T23:48:54.903Z,98670.89
2023-03-06T23:51:23.664Z,98666.42
2023-03-06T23:53:56.614Z,98664.23
2023-03-06T23:56:25.589Z,98664.33
2023-03-06T23:58:54.819Z,98654.71
